sensor_id;sensor_type;location;lat;lon;timestamp;P1;durP1;ratioP1;P2;durP2;ratioP2
32323;SDS011;25666;44.350;9.222;2024-02-21T00:00:49;22.58;;;9.80;;
32323;SDS011;25666;44.350;9.222;2024-02-21T00:03:15;21.45;;;10.00;;
32323;SDS011;25666;44.350;9.222;2024-02-21T00:05:40;19.27;;;10.43;;
32323;SDS011;25666;44.350;9.222;2024-02-21T00:08:06;22.92;;;11.05;;
32323;SDS011;25666;44.350;9.222;2024-02-21T00:10:32;21.70;;;9.43;;
32323;SDS011;25666;44.350;9.222;2024-02-21T00:12:58;24.13;;;11.77;;
32323;SDS011;25666;44.350;9.222;2024-02-21T00:15:25;24.27;;;11.73;;
32323;SDS011;25666;44.350;9.222;2024-02-21T00:17:50;24.42;;;11.25;;
32323;SDS011;25666;44.350;9.222;2024-02-21T00:20:16;29.00;;;13.50;;
32323;SDS011;25666;44.350;9.222;2024-02-21T00:22:42;30.85;;;12.68;;
32323;SDS011;25666;44.350;9.222;2024-02-21T00:25:09;25.92;;;11.68;;
32323;SDS011;25666;44.350;9.222;2024-02-21T00:27:35;26.70;;;11.70;;
32323;SDS011;25666;44.350;9.222;2024-02-21T00:30:00;26.80;;;11.60;;
32323;SDS011;25666;44.350;9.222;2024-02-21T00:32:26;18.13;;;9.90;;
32323;SDS011;25666;44.350;9.222;2024-02-21T00:34:51;18.63;;;9.35;;
32323;SDS011;25666;44.350;9.222;2024-02-21T00:37:17;21.25;;;9.30;;
32323;SDS011;25666;44.350;9.222;2024-02-21T00:39:42;19.98;;;9.07;;
32323;SDS011;25666;44.350;9.222;2024-02-21T00:42:08;16.00;;;8.30;;
32323;SDS011;25666;44.350;9.222;2024-02-21T00:44:33;19.85;;;9.38;;
32323;SDS011;25666;44.350;9.222;2024-02-21T00:46:59;15.18;;;7.45;;
32323;SDS011;25666;44.350;9.222;2024-02-21T00:49:25;14.43;;;6.78;;
32323;SDS011;25666;44.350;9.222;2024-02-21T00:51:51;16.33;;;7.38;;
32323;SDS011;25666;44.350;9.222;2024-02-21T00:54:16;15.73;;;8.00;;
32323;SDS011;25666;44.350;9.222;2024-02-21T00:56:42;16.75;;;7.18;;
32323;SDS011;25666;44.350;9.222;2024-02-21T00:59:08;13.95;;;6.88;;
32323;SDS011;25666;44.350;9.222;2024-02-21T01:01:33;13.25;;;7.15;;
32323;SDS011;25666;44.350;9.222;2024-02-21T01:03:59;14.95;;;7.40;;
32323;SDS011;25666;44.350;9.222;2024-02-21T01:06:25;15.88;;;8.43;;
32323;SDS011;25666;44.350;9.222;2024-02-21T01:08:50;13.50;;;7.25;;
32323;SDS011;25666;44.350;9.222;2024-02-21T01:11:16;15.18;;;7.22;;
32323;SDS011;25666;44.350;9.222;2024-02-21T01:13:42;20.38;;;6.85;;
32323;SDS011;25666;44.350;9.222;2024-02-21T01:16:08;12.27;;;6.82;;
32323;SDS011;25666;44.350;9.222;2024-02-21T01:18:33;15.13;;;6.45;;
32323;SDS011;25666;44.350;9.222;2024-02-21T01:20:59;17.70;;;7.13;;
32323;SDS011;25666;44.350;9.222;2024-02-21T01:23:25;11.40;;;5.93;;
32323;SDS011;25666;44.350;9.222;2024-02-21T01:25:51;11.35;;;6.50;;
32323;SDS011;25666;44.350;9.222;2024-02-21T01:28:16;12.38;;;6.70;;
32323;SDS011;25666;44.350;9.222;2024-02-21T01:30:42;16.00;;;7.20;;
32323;SDS011;25666;44.350;9.222;2024-02-21T01:33:08;16.27;;;7.43;;
32323;SDS011;25666;44.350;9.222;2024-02-21T01:35:34;13.35;;;7.40;;
32323;SDS011;25666;44.350;9.222;2024-02-21T01:38:01;12.85;;;6.10;;
32323;SDS011;25666;44.350;9.222;2024-02-21T01:40:27;16.67;;;7.65;;
32323;SDS011;25666;44.350;9.222;2024-02-21T01:42:55;16.50;;;6.88;;
32323;SDS011;25666;44.350;9.222;2024-02-21T01:45:20;13.70;;;7.10;;
32323;SDS011;25666;44.350;9.222;2024-02-21T01:47:46;12.30;;;6.15;;
32323;SDS011;25666;44.350;9.222;2024-02-21T01:50:12;10.82;;;6.15;;
32323;SDS011;25666;44.350;9.222;2024-02-21T01:52:40;14.25;;;5.63;;
32323;SDS011;25666;44.350;9.222;2024-02-21T01:55:08;14.50;;;6.43;;
32323;SDS011;25666;44.350;9.222;2024-02-21T01:57:36;10.25;;;5.35;;
32323;SDS011;25666;44.350;9.222;2024-02-21T02:00:04;10.02;;;5.63;;
32323;SDS011;25666;44.350;9.222;2024-02-21T02:02:35;13.35;;;6.85;;
32323;SDS011;25666;44.350;9.222;2024-02-21T02:05:03;12.07;;;6.78;;
32323;SDS011;25666;44.350;9.222;2024-02-21T02:07:31;10.60;;;6.65;;
32323;SDS011;25666;44.350;9.222;2024-02-21T02:09:57;15.60;;;6.72;;
32323;SDS011;25666;44.350;9.222;2024-02-21T02:12:22;14.02;;;6.03;;
32323;SDS011;25666;44.350;9.222;2024-02-21T02:15:02;12.35;;;6.55;;
32323;SDS011;25666;44.350;9.222;2024-02-21T02:17:30;9.38;;;5.75;;
32323;SDS011;25666;44.350;9.222;2024-02-21T02:19:55;10.35;;;5.85;;
32323;SDS011;25666;44.350;9.222;2024-02-21T02:22:27;15.10;;;7.05;;
32323;SDS011;25666;44.350;9.222;2024-02-21T02:24:54;11.15;;;5.85;;
32323;SDS011;25666;44.350;9.222;2024-02-21T02:27:20;12.68;;;6.18;;
32323;SDS011;25666;44.350;9.222;2024-02-21T02:29:48;15.75;;;6.30;;
32323;SDS011;25666;44.350;9.222;2024-02-21T02:32:13;10.63;;;5.63;;
32323;SDS011;25666;44.350;9.222;2024-02-21T02:34:39;13.93;;;6.82;;
32323;SDS011;25666;44.350;9.222;2024-02-21T02:37:04;12.98;;;5.57;;
32323;SDS011;25666;44.350;9.222;2024-02-21T02:39:30;10.50;;;5.25;;
32323;SDS011;25666;44.350;9.222;2024-02-21T02:41:55;7.90;;;4.90;;
32323;SDS011;25666;44.350;9.222;2024-02-21T02:44:21;8.18;;;5.43;;
32323;SDS011;25666;44.350;9.222;2024-02-21T02:46:47;9.55;;;4.85;;
32323;SDS011;25666;44.350;9.222;2024-02-21T02:49:12;7.47;;;5.00;;
32323;SDS011;25666;44.350;9.222;2024-02-21T02:51:41;7.40;;;5.05;;
32323;SDS011;25666;44.350;9.222;2024-02-21T02:54:09;9.93;;;6.03;;
32323;SDS011;25666;44.350;9.222;2024-02-21T02:56:37;8.65;;;5.53;;
32323;SDS011;25666;44.350;9.222;2024-02-21T02:59:03;9.20;;;5.40;;
32323;SDS011;25666;44.350;9.222;2024-02-21T03:01:28;8.55;;;5.75;;
32323;SDS011;25666;44.350;9.222;2024-02-21T03:03:54;13.73;;;6.10;;
32323;SDS011;25666;44.350;9.222;2024-02-21T03:06:19;10.68;;;5.80;;
32323;SDS011;25666;44.350;9.222;2024-02-21T03:08:45;10.60;;;5.75;;
32323;SDS011;25666;44.350;9.222;2024-02-21T03:11:11;10.95;;;6.50;;
32323;SDS011;25666;44.350;9.222;2024-02-21T03:13:36;11.98;;;6.65;;
32323;SDS011;25666;44.350;9.222;2024-02-21T03:16:02;16.00;;;6.78;;
32323;SDS011;25666;44.350;9.222;2024-02-21T03:18:28;12.43;;;6.70;;
32323;SDS011;25666;44.350;9.222;2024-02-21T03:20:53;12.15;;;6.78;;
32323;SDS011;25666;44.350;9.222;2024-02-21T03:23:19;13.02;;;7.18;;
32323;SDS011;25666;44.350;9.222;2024-02-21T03:25:45;14.55;;;7.53;;
32323;SDS011;25666;44.350;9.222;2024-02-21T03:28:11;14.30;;;6.90;;
32323;SDS011;25666;44.350;9.222;2024-02-21T03:30:36;15.55;;;7.32;;
32323;SDS011;25666;44.350;9.222;2024-02-21T03:33:02;12.15;;;6.70;;
32323;SDS011;25666;44.350;9.222;2024-02-21T03:35:28;14.88;;;6.75;;
32323;SDS011;25666;44.350;9.222;2024-02-21T03:37:53;12.65;;;7.38;;
32323;SDS011;25666;44.350;9.222;2024-02-21T03:40:19;17.95;;;6.93;;
32323;SDS011;25666;44.350;9.222;2024-02-21T03:42:45;15.63;;;7.45;;
32323;SDS011;25666;44.350;9.222;2024-02-21T03:45:10;13.70;;;7.50;;
32323;SDS011;25666;44.350;9.222;2024-02-21T03:47:36;10.68;;;7.43;;
32323;SDS011;25666;44.350;9.222;2024-02-21T03:50:01;15.98;;;7.88;;
32323;SDS011;25666;44.350;9.222;2024-02-21T03:52:27;15.50;;;7.53;;
32323;SDS011;25666;44.350;9.222;2024-02-21T03:54:53;18.10;;;8.40;;
32323;SDS011;25666;44.350;9.222;2024-02-21T03:57:20;14.52;;;8.90;;
32323;SDS011;25666;44.350;9.222;2024-02-21T03:59:46;20.42;;;9.98;;
32323;SDS011;25666;44.350;9.222;2024-02-21T04:02:14;15.90;;;8.93;;
32323;SDS011;25666;44.350;9.222;2024-02-21T04:04:42;15.98;;;8.00;;
32323;SDS011;25666;44.350;9.222;2024-02-21T04:07:11;18.13;;;8.43;;
32323;SDS011;25666;44.350;9.222;2024-02-21T04:09:37;15.88;;;8.68;;
32323;SDS011;25666;44.350;9.222;2024-02-21T04:12:03;12.60;;;8.23;;
32323;SDS011;25666;44.350;9.222;2024-02-21T04:14:28;15.40;;;8.35;;
32323;SDS011;25666;44.350;9.222;2024-02-21T04:16:54;18.95;;;8.88;;
32323;SDS011;25666;44.350;9.222;2024-02-21T04:19:20;17.25;;;8.70;;
32323;SDS011;25666;44.350;9.222;2024-02-21T04:21:45;16.42;;;7.85;;
32323;SDS011;25666;44.350;9.222;2024-02-21T04:24:11;17.17;;;9.00;;
32323;SDS011;25666;44.350;9.222;2024-02-21T04:26:36;19.05;;;8.07;;
32323;SDS011;25666;44.350;9.222;2024-02-21T04:29:02;22.25;;;10.52;;
32323;SDS011;25666;44.350;9.222;2024-02-21T04:31:27;16.08;;;9.07;;
32323;SDS011;25666;44.350;9.222;2024-02-21T04:33:53;18.70;;;8.50;;
32323;SDS011;25666;44.350;9.222;2024-02-21T04:36:19;19.13;;;9.63;;
32323;SDS011;25666;44.350;9.222;2024-02-21T04:38:44;24.65;;;9.00;;
32323;SDS011;25666;44.350;9.222;2024-02-21T04:41:10;19.63;;;8.65;;
32323;SDS011;25666;44.350;9.222;2024-02-21T04:43:36;16.02;;;8.63;;
32323;SDS011;25666;44.350;9.222;2024-02-21T04:46:01;16.67;;;8.57;;
32323;SDS011;25666;44.350;9.222;2024-02-21T04:48:27;12.85;;;7.28;;
32323;SDS011;25666;44.350;9.222;2024-02-21T04:50:52;20.95;;;9.35;;
32323;SDS011;25666;44.350;9.222;2024-02-21T04:53:18;17.17;;;10.15;;
32323;SDS011;25666;44.350;9.222;2024-02-21T04:55:43;19.58;;;8.60;;
32323;SDS011;25666;44.350;9.222;2024-02-21T04:58:09;23.05;;;9.52;;
32323;SDS011;25666;44.350;9.222;2024-02-21T05:00:35;19.10;;;8.18;;
32323;SDS011;25666;44.350;9.222;2024-02-21T05:03:00;18.00;;;8.95;;
32323;SDS011;25666;44.350;9.222;2024-02-21T05:05:26;23.52;;;8.63;;
32323;SDS011;25666;44.350;9.222;2024-02-21T05:07:51;22.73;;;9.10;;
32323;SDS011;25666;44.350;9.222;2024-02-21T05:10:17;17.17;;;9.48;;
32323;SDS011;25666;44.350;9.222;2024-02-21T05:12:44;18.00;;;8.48;;
32323;SDS011;25666;44.350;9.222;2024-02-21T05:15:10;19.17;;;9.13;;
32323;SDS011;25666;44.350;9.222;2024-02-21T05:17:35;17.73;;;8.90;;
32323;SDS011;25666;44.350;9.222;2024-02-21T05:20:01;18.33;;;8.98;;
32323;SDS011;25666;44.350;9.222;2024-02-21T05:22:27;13.48;;;7.70;;
32323;SDS011;25666;44.350;9.222;2024-02-21T05:24:52;12.68;;;6.85;;
32323;SDS011;25666;44.350;9.222;2024-02-21T05:27:18;14.75;;;6.95;;
32323;SDS011;25666;44.350;9.222;2024-02-21T05:29:43;13.80;;;7.57;;
32323;SDS011;25666;44.350;9.222;2024-02-21T05:32:09;14.80;;;7.30;;
32323;SDS011;25666;44.350;9.222;2024-02-21T05:34:35;12.95;;;7.45;;
32323;SDS011;25666;44.350;9.222;2024-02-21T05:37:00;13.52;;;7.00;;
32323;SDS011;25666;44.350;9.222;2024-02-21T05:39:26;12.57;;;7.25;;
32323;SDS011;25666;44.350;9.222;2024-02-21T05:41:52;20.13;;;8.35;;
32323;SDS011;25666;44.350;9.222;2024-02-21T05:44:18;15.00;;;7.68;;
32323;SDS011;25666;44.350;9.222;2024-02-21T05:46:44;18.52;;;7.82;;
32323;SDS011;25666;44.350;9.222;2024-02-21T05:49:13;14.50;;;7.68;;
32323;SDS011;25666;44.350;9.222;2024-02-21T05:51:39;16.35;;;7.80;;
32323;SDS011;25666;44.350;9.222;2024-02-21T05:54:04;16.17;;;8.65;;
32323;SDS011;25666;44.350;9.222;2024-02-21T05:56:30;22.30;;;8.30;;
32323;SDS011;25666;44.350;9.222;2024-02-21T05:58:55;13.98;;;8.10;;
32323;SDS011;25666;44.350;9.222;2024-02-21T06:01:21;16.60;;;8.00;;
32323;SDS011;25666;44.350;9.222;2024-02-21T06:03:47;14.98;;;7.72;;
32323;SDS011;25666;44.350;9.222;2024-02-21T06:06:13;19.80;;;8.52;;
32323;SDS011;25666;44.350;9.222;2024-02-21T06:08:39;20.67;;;9.18;;
32323;SDS011;25666;44.350;9.222;2024-02-21T06:11:05;21.08;;;8.73;;
32323;SDS011;25666;44.350;9.222;2024-02-21T06:13:31;15.07;;;8.00;;
32323;SDS011;25666;44.350;9.222;2024-02-21T06:15:56;19.10;;;8.43;;
32323;SDS011;25666;44.350;9.222;2024-02-21T06:18:22;14.80;;;7.55;;
32323;SDS011;25666;44.350;9.222;2024-02-21T06:20:48;13.70;;;7.57;;
32323;SDS011;25666;44.350;9.222;2024-02-21T06:23:14;13.68;;;7.00;;
32323;SDS011;25666;44.350;9.222;2024-02-21T06:25:42;14.40;;;7.00;;
32323;SDS011;25666;44.350;9.222;2024-02-21T06:28:07;11.82;;;6.38;;
32323;SDS011;25666;44.350;9.222;2024-02-21T06:30:33;16.00;;;7.53;;
32323;SDS011;25666;44.350;9.222;2024-02-21T06:32:59;13.50;;;7.70;;
32323;SDS011;25666;44.350;9.222;2024-02-21T06:35:25;19.58;;;7.55;;
32323;SDS011;25666;44.350;9.222;2024-02-21T06:37:51;15.25;;;7.40;;
32323;SDS011;25666;44.350;9.222;2024-02-21T06:40:25;14.18;;;6.78;;
32323;SDS011;25666;44.350;9.222;2024-02-21T06:42:51;18.73;;;8.00;;
32323;SDS011;25666;44.350;9.222;2024-02-21T06:45:17;14.88;;;7.38;;
32323;SDS011;25666;44.350;9.222;2024-02-21T06:47:42;17.42;;;7.00;;
32323;SDS011;25666;44.350;9.222;2024-02-21T06:50:08;17.08;;;7.60;;
32323;SDS011;25666;44.350;9.222;2024-02-21T06:52:35;15.88;;;6.97;;
32323;SDS011;25666;44.350;9.222;2024-02-21T06:55:03;15.45;;;6.55;;
32323;SDS011;25666;44.350;9.222;2024-02-21T06:57:29;16.13;;;6.50;;
32323;SDS011;25666;44.350;9.222;2024-02-21T06:59:57;11.38;;;6.80;;
32323;SDS011;25666;44.350;9.222;2024-02-21T07:02:23;15.85;;;7.57;;
32323;SDS011;25666;44.350;9.222;2024-02-21T07:04:48;17.55;;;7.18;;
32323;SDS011;25666;44.350;9.222;2024-02-21T07:07:14;22.98;;;7.78;;
32323;SDS011;25666;44.350;9.222;2024-02-21T07:09:40;18.60;;;7.85;;
32323;SDS011;25666;44.350;9.222;2024-02-21T07:12:05;20.77;;;8.75;;
32323;SDS011;25666;44.350;9.222;2024-02-21T07:14:35;33.45;;;11.30;;
32323;SDS011;25666;44.350;9.222;2024-02-21T07:17:01;41.03;;;13.68;;
32323;SDS011;25666;44.350;9.222;2024-02-21T07:19:27;41.65;;;14.07;;
32323;SDS011;25666;44.350;9.222;2024-02-21T07:21:52;30.67;;;13.93;;
32323;SDS011;25666;44.350;9.222;2024-02-21T07:24:18;35.03;;;11.25;;
32323;SDS011;25666;44.350;9.222;2024-02-21T07:26:43;39.53;;;12.23;;
32323;SDS011;25666;44.350;9.222;2024-02-21T07:29:09;49.33;;;19.30;;
32323;SDS011;25666;44.350;9.222;2024-02-21T07:31:41;37.67;;;15.15;;
32323;SDS011;25666;44.350;9.222;2024-02-21T07:34:07;42.72;;;17.42;;
32323;SDS011;25666;44.350;9.222;2024-02-21T07:36:32;35.53;;;14.95;;
32323;SDS011;25666;44.350;9.222;2024-02-21T07:38:58;38.92;;;15.90;;
32323;SDS011;25666;44.350;9.222;2024-02-21T07:41:24;30.48;;;15.00;;
32323;SDS011;25666;44.350;9.222;2024-02-21T07:43:54;36.90;;;14.32;;
32323;SDS011;25666;44.350;9.222;2024-02-21T07:46:23;24.80;;;12.60;;
32323;SDS011;25666;44.350;9.222;2024-02-21T07:48:48;27.17;;;12.20;;
32323;SDS011;25666;44.350;9.222;2024-02-21T07:51:14;23.52;;;10.45;;
32323;SDS011;25666;44.350;9.222;2024-02-21T07:53:43;23.85;;;9.80;;
32323;SDS011;25666;44.350;9.222;2024-02-21T07:56:13;22.85;;;10.10;;
32323;SDS011;25666;44.350;9.222;2024-02-21T07:58:40;23.65;;;10.18;;
32323;SDS011;25666;44.350;9.222;2024-02-21T08:01:06;24.25;;;11.88;;
32323;SDS011;25666;44.350;9.222;2024-02-21T08:03:31;20.95;;;9.50;;
32323;SDS011;25666;44.350;9.222;2024-02-21T08:05:57;37.63;;;13.13;;
32323;SDS011;25666;44.350;9.222;2024-02-21T08:08:22;31.65;;;12.82;;
32323;SDS011;25666;44.350;9.222;2024-02-21T08:10:51;38.03;;;14.30;;
32323;SDS011;25666;44.350;9.222;2024-02-21T08:13:17;28.50;;;12.95;;
32323;SDS011;25666;44.350;9.222;2024-02-21T08:15:43;35.88;;;11.70;;
32323;SDS011;25666;44.350;9.222;2024-02-21T08:18:08;27.05;;;12.23;;
32323;SDS011;25666;44.350;9.222;2024-02-21T08:20:34;37.75;;;16.65;;
32323;SDS011;25666;44.350;9.222;2024-02-21T08:23:00;41.70;;;19.08;;
32323;SDS011;25666;44.350;9.222;2024-02-21T08:25:27;72.05;;;28.73;;
32323;SDS011;25666;44.350;9.222;2024-02-21T08:27:55;127.85;;;53.35;;
32323;SDS011;25666;44.350;9.222;2024-02-21T08:30:22;145.18;;;58.38;;
32323;SDS011;25666;44.350;9.222;2024-02-21T08:32:48;123.25;;;49.58;;
32323;SDS011;25666;44.350;9.222;2024-02-21T08:35:13;93.00;;;36.92;;
32323;SDS011;25666;44.350;9.222;2024-02-21T08:37:39;74.68;;;34.47;;
32323;SDS011;25666;44.350;9.222;2024-02-21T08:40:04;66.68;;;31.10;;
32323;SDS011;25666;44.350;9.222;2024-02-21T08:42:38;70.70;;;29.27;;
32323;SDS011;25666;44.350;9.222;2024-02-21T08:45:04;57.20;;;25.83;;
32323;SDS011;25666;44.350;9.222;2024-02-21T08:47:30;56.72;;;25.50;;
32323;SDS011;25666;44.350;9.222;2024-02-21T08:49:56;47.17;;;20.42;;
32323;SDS011;25666;44.350;9.222;2024-02-21T08:52:21;42.75;;;20.90;;
32323;SDS011;25666;44.350;9.222;2024-02-21T08:54:47;42.25;;;18.73;;
32323;SDS011;25666;44.350;9.222;2024-02-21T08:57:12;60.33;;;20.05;;
32323;SDS011;25666;44.350;9.222;2024-02-21T08:59:39;38.75;;;18.98;;
32323;SDS011;25666;44.350;9.222;2024-02-21T09:02:05;36.03;;;19.85;;
32323;SDS011;25666;44.350;9.222;2024-02-21T09:04:32;51.38;;;21.58;;
32323;SDS011;25666;44.350;9.222;2024-02-21T09:06:58;45.33;;;19.30;;
32323;SDS011;25666;44.350;9.222;2024-02-21T09:09:24;53.67;;;23.23;;
32323;SDS011;25666;44.350;9.222;2024-02-21T09:11:50;45.05;;;21.60;;
32323;SDS011;25666;44.350;9.222;2024-02-21T09:14:15;49.88;;;22.30;;
32323;SDS011;25666;44.350;9.222;2024-02-21T09:16:41;49.00;;;22.67;;
32323;SDS011;25666;44.350;9.222;2024-02-21T09:19:07;50.40;;;23.42;;
32323;SDS011;25666;44.350;9.222;2024-02-21T09:21:35;43.53;;;20.27;;
32323;SDS011;25666;44.350;9.222;2024-02-21T09:24:01;37.20;;;17.83;;
32323;SDS011;25666;44.350;9.222;2024-02-21T09:26:28;49.08;;;19.35;;
32323;SDS011;25666;44.350;9.222;2024-02-21T09:28:53;32.67;;;16.67;;
32323;SDS011;25666;44.350;9.222;2024-02-21T09:31:19;24.98;;;13.52;;
32323;SDS011;25666;44.350;9.222;2024-02-21T09:33:45;33.83;;;14.75;;
32323;SDS011;25666;44.350;9.222;2024-02-21T09:36:10;31.13;;;13.80;;
32323;SDS011;25666;44.350;9.222;2024-02-21T09:38:36;22.83;;;11.77;;
32323;SDS011;25666;44.350;9.222;2024-02-21T09:41:17;18.73;;;9.20;;
32323;SDS011;25666;44.350;9.222;2024-02-21T09:43:49;21.77;;;8.40;;
32323;SDS011;25666;44.350;9.222;2024-02-21T09:46:16;17.05;;;8.35;;
32323;SDS011;25666;44.350;9.222;2024-02-21T09:51:41;19.63;;;9.63;;
32323;SDS011;25666;44.350;9.222;2024-02-21T09:54:08;21.35;;;7.70;;
32323;SDS011;25666;44.350;9.222;2024-02-21T09:56:34;19.70;;;7.95;;
32323;SDS011;25666;44.350;9.222;2024-02-21T09:59:00;12.88;;;6.72;;
32323;SDS011;25666;44.350;9.222;2024-02-21T10:01:30;13.35;;;6.53;;
32323;SDS011;25666;44.350;9.222;2024-02-21T10:03:57;21.65;;;7.68;;
32323;SDS011;25666;44.350;9.222;2024-02-21T10:06:22;22.88;;;7.82;;
32323;SDS011;25666;44.350;9.222;2024-02-21T10:08:51;22.00;;;8.10;;
32323;SDS011;25666;44.350;9.222;2024-02-21T10:11:24;19.63;;;6.18;;
32323;SDS011;25666;44.350;9.222;2024-02-21T10:13:51;13.07;;;5.82;;
32323;SDS011;25666;44.350;9.222;2024-02-21T10:16:16;10.68;;;6.07;;
32323;SDS011;25666;44.350;9.222;2024-02-21T10:18:42;11.98;;;5.75;;
32323;SDS011;25666;44.350;9.222;2024-02-21T10:21:08;11.60;;;6.82;;
32323;SDS011;25666;44.350;9.222;2024-02-21T10:23:49;13.57;;;5.72;;
32323;SDS011;25666;44.350;9.222;2024-02-21T10:26:16;13.48;;;5.03;;
32323;SDS011;25666;44.350;9.222;2024-02-21T10:28:43;10.35;;;5.57;;
32323;SDS011;25666;44.350;9.222;2024-02-21T10:31:31;11.95;;;5.78;;
32323;SDS011;25666;44.350;9.222;2024-02-21T10:36:21;9.85;;;5.63;;
32323;SDS011;25666;44.350;9.222;2024-02-21T10:38:46;13.73;;;5.40;;
32323;SDS011;25666;44.350;9.222;2024-02-21T10:41:13;13.98;;;5.70;;
32323;SDS011;25666;44.350;9.222;2024-02-21T10:43:40;13.07;;;5.57;;
32323;SDS011;25666;44.350;9.222;2024-02-21T10:46:06;8.38;;;4.75;;
32323;SDS011;25666;44.350;9.222;2024-02-21T10:57:35;11.40;;;5.75;;
32323;SDS011;25666;44.350;9.222;2024-02-21T11:00:03;11.55;;;5.55;;
32323;SDS011;25666;44.350;9.222;2024-02-21T11:02:33;10.52;;;5.90;;
32323;SDS011;25666;44.350;9.222;2024-02-21T11:04:59;16.95;;;6.47;;
32323;SDS011;25666;44.350;9.222;2024-02-21T11:07:29;12.38;;;6.00;;
32323;SDS011;25666;44.350;9.222;2024-02-21T11:09:57;11.40;;;5.63;;
32323;SDS011;25666;44.350;9.222;2024-02-21T11:12:24;11.48;;;5.32;;
32323;SDS011;25666;44.350;9.222;2024-02-21T11:14:51;11.52;;;5.53;;
32323;SDS011;25666;44.350;9.222;2024-02-21T11:17:17;17.08;;;5.70;;
32323;SDS011;25666;44.350;9.222;2024-02-21T11:19:43;11.82;;;4.95;;
32323;SDS011;25666;44.350;9.222;2024-02-21T11:22:18;9.63;;;5.00;;
32323;SDS011;25666;44.350;9.222;2024-02-21T11:24:47;9.38;;;5.32;;
32323;SDS011;25666;44.350;9.222;2024-02-21T11:27:18;12.27;;;5.65;;
32323;SDS011;25666;44.350;9.222;2024-02-21T11:29:54;8.35;;;4.32;;
32323;SDS011;25666;44.350;9.222;2024-02-21T11:32:21;8.70;;;5.28;;
32323;SDS011;25666;44.350;9.222;2024-02-21T11:34:54;9.52;;;4.18;;
32323;SDS011;25666;44.350;9.222;2024-02-21T11:37:19;11.40;;;4.30;;
32323;SDS011;25666;44.350;9.222;2024-02-21T11:39:45;9.30;;;4.47;;
32323;SDS011;25666;44.350;9.222;2024-02-21T11:42:11;7.65;;;4.47;;
32323;SDS011;25666;44.350;9.222;2024-02-21T11:44:37;8.25;;;4.28;;
32323;SDS011;25666;44.350;9.222;2024-02-21T11:47:05;8.55;;;4.38;;
32323;SDS011;25666;44.350;9.222;2024-02-21T11:49:35;10.73;;;4.80;;
32323;SDS011;25666;44.350;9.222;2024-02-21T11:52:02;7.07;;;3.90;;
32323;SDS011;25666;44.350;9.222;2024-02-21T11:54:32;8.65;;;4.32;;
32323;SDS011;25666;44.350;9.222;2024-02-21T11:56:59;6.85;;;4.72;;
32323;SDS011;25666;44.350;9.222;2024-02-21T11:59:25;7.97;;;4.18;;
32323;SDS011;25666;44.350;9.222;2024-02-21T12:01:52;5.63;;;3.83;;
32323;SDS011;25666;44.350;9.222;2024-02-21T12:04:18;8.65;;;3.88;;
32323;SDS011;25666;44.350;9.222;2024-02-21T12:06:45;6.57;;;4.03;;
32323;SDS011;25666;44.350;9.222;2024-02-21T12:09:14;9.45;;;4.93;;
32323;SDS011;25666;44.350;9.222;2024-02-21T12:11:44;7.97;;;4.78;;
32323;SDS011;25666;44.350;9.222;2024-02-21T12:14:10;6.75;;;4.40;;
32323;SDS011;25666;44.350;9.222;2024-02-21T12:16:36;7.50;;;4.85;;
32323;SDS011;25666;44.350;9.222;2024-02-21T12:19:05;7.68;;;4.28;;
32323;SDS011;25666;44.350;9.222;2024-02-21T12:21:31;12.20;;;4.55;;
32323;SDS011;25666;44.350;9.222;2024-02-21T12:23:58;10.55;;;4.72;;
32323;SDS011;25666;44.350;9.222;2024-02-21T12:26:24;8.35;;;4.50;;
32323;SDS011;25666;44.350;9.222;2024-02-21T12:28:53;9.57;;;5.15;;
32323;SDS011;25666;44.350;9.222;2024-02-21T12:31:20;12.43;;;5.82;;
32323;SDS011;25666;44.350;9.222;2024-02-21T12:33:46;9.32;;;4.28;;
32323;SDS011;25666;44.350;9.222;2024-02-21T12:36:12;8.40;;;4.88;;
32323;SDS011;25666;44.350;9.222;2024-02-21T12:38:37;10.70;;;4.82;;
32323;SDS011;25666;44.350;9.222;2024-02-21T12:41:03;12.50;;;5.53;;
32323;SDS011;25666;44.350;9.222;2024-02-21T12:43:29;13.68;;;5.40;;
32323;SDS011;25666;44.350;9.222;2024-02-21T12:45:54;14.88;;;6.32;;
32323;SDS011;25666;44.350;9.222;2024-02-21T12:48:19;9.52;;;5.38;;
32323;SDS011;25666;44.350;9.222;2024-02-21T12:50:49;7.32;;;5.43;;
32323;SDS011;25666;44.350;9.222;2024-02-21T12:53:19;9.23;;;5.55;;
32323;SDS011;25666;44.350;9.222;2024-02-21T12:55:47;11.43;;;5.57;;
32323;SDS011;25666;44.350;9.222;2024-02-21T12:58:13;10.40;;;5.70;;
32323;SDS011;25666;44.350;9.222;2024-02-21T13:00:40;10.13;;;4.40;;
32323;SDS011;25666;44.350;9.222;2024-02-21T13:03:05;8.50;;;4.97;;
32323;SDS011;25666;44.350;9.222;2024-02-21T13:05:31;10.85;;;5.63;;
32323;SDS011;25666;44.350;9.222;2024-02-21T13:07:57;12.82;;;5.15;;
32323;SDS011;25666;44.350;9.222;2024-02-21T13:10:23;12.95;;;5.45;;
32323;SDS011;25666;44.350;9.222;2024-02-21T13:12:49;13.77;;;6.45;;
32323;SDS011;25666;44.350;9.222;2024-02-21T13:15:14;9.30;;;5.30;;
32323;SDS011;25666;44.350;9.222;2024-02-21T13:17:41;9.48;;;5.28;;
32323;SDS011;25666;44.350;9.222;2024-02-21T13:20:07;9.10;;;5.13;;
32323;SDS011;25666;44.350;9.222;2024-02-21T13:22:33;9.85;;;5.28;;
32323;SDS011;25666;44.350;9.222;2024-02-21T13:25:00;8.35;;;4.95;;
32323;SDS011;25666;44.350;9.222;2024-02-21T13:27:25;8.88;;;5.00;;
32323;SDS011;25666;44.350;9.222;2024-02-21T13:29:51;17.17;;;10.15;;
32323;SDS011;25666;44.350;9.222;2024-02-21T13:32:18;12.60;;;7.68;;
32323;SDS011;25666;44.350;9.222;2024-02-21T13:34:44;11.98;;;5.82;;
32323;SDS011;25666;44.350;9.222;2024-02-21T13:37:09;9.75;;;5.80;;
32323;SDS011;25666;44.350;9.222;2024-02-21T13:39:35;9.68;;;4.85;;
32323;SDS011;25666;44.350;9.222;2024-02-21T13:42:01;11.10;;;5.65;;
32323;SDS011;25666;44.350;9.222;2024-02-21T13:44:31;7.47;;;4.82;;
32323;SDS011;25666;44.350;9.222;2024-02-21T13:46:57;7.95;;;5.30;;
32323;SDS011;25666;44.350;9.222;2024-02-21T13:49:22;8.13;;;4.88;;
32323;SDS011;25666;44.350;9.222;2024-02-21T13:51:48;10.13;;;4.75;;
32323;SDS011;25666;44.350;9.222;2024-02-21T13:54:13;8.77;;;5.22;;
32323;SDS011;25666;44.350;9.222;2024-02-21T13:56:42;8.35;;;4.65;;
32323;SDS011;25666;44.350;9.222;2024-02-21T13:59:08;9.05;;;5.20;;
32323;SDS011;25666;44.350;9.222;2024-02-21T14:01:34;9.95;;;5.38;;
32323;SDS011;25666;44.350;9.222;2024-02-21T14:04:00;13.77;;;6.53;;
32323;SDS011;25666;44.350;9.222;2024-02-21T14:06:26;9.00;;;4.90;;
32323;SDS011;25666;44.350;9.222;2024-02-21T14:08:52;10.57;;;5.13;;
32323;SDS011;25666;44.350;9.222;2024-02-21T14:11:18;8.52;;;5.43;;
32323;SDS011;25666;44.350;9.222;2024-02-21T14:13:43;11.95;;;5.45;;
32323;SDS011;25666;44.350;9.222;2024-02-21T14:16:10;12.00;;;5.82;;
32323;SDS011;25666;44.350;9.222;2024-02-21T14:18:39;10.77;;;5.82;;
32323;SDS011;25666;44.350;9.222;2024-02-21T14:21:08;10.23;;;6.07;;
32323;SDS011;25666;44.350;9.222;2024-02-21T14:23:36;7.97;;;5.13;;
32323;SDS011;25666;44.350;9.222;2024-02-21T14:26:02;9.15;;;5.55;;
32323;SDS011;25666;44.350;9.222;2024-02-21T14:28:28;13.50;;;6.40;;
32323;SDS011;25666;44.350;9.222;2024-02-21T14:30:54;11.50;;;5.93;;
32323;SDS011;25666;44.350;9.222;2024-02-21T14:33:26;8.88;;;5.85;;
32323;SDS011;25666;44.350;9.222;2024-02-21T14:35:52;22.27;;;6.15;;
32323;SDS011;25666;44.350;9.222;2024-02-21T14:38:19;10.60;;;5.95;;
32323;SDS011;25666;44.350;9.222;2024-02-21T14:40:44;11.75;;;6.28;;
32323;SDS011;25666;44.350;9.222;2024-02-21T14:43:10;12.10;;;6.80;;